Time;durP1;ratioP1;P1;durP2;ratioP2;P2;SDS_P1;SDS_P2;PMS_P1;PMS_P2;Temp;Humidity;BMP_temperature;BMP_pressure;BME280_temperature;BME280_humidity;BME280_pressure;Samples;Min_cycle;Max_cycle;Signal;HPM_P1;HPM_P2
2022/04/13 00:01:35;;;;;;;9.53;9.23;;;8.90;99.90;;;;;;5144172;27;20254;-80
2022/04/13 00:04:03;;;;;;;9.77;9.47;;;8.90;99.90;;;;;;5146378;27;20212;-80
2022/04/13 00:06:38;;;;;;;9.73;9.43;;;8.90;99.90;;;;;;5158825;27;21037;-80
2022/04/13 00:09:13;;;;;;;9.77;9.47;;;8.80;99.90;;;;;;5155563;27;20231;-81
2022/04/13 00:11:41;;;;;;;10.00;9.70;;;8.80;99.90;;;;;;5146968;27;20259;-81
2022/04/13 00:14:10;;;;;;;10.00;9.70;;;8.70;99.90;;;;;;5145930;27;20280;-81
2022/04/13 00:16:50;;;;;;;9.80;9.50;;;8.70;99.90;;;;;;5145027;27;20236;-80
2022/04/13 00:19:20;;;;;;;9.90;9.60;;;8.70;99.90;;;;;;5145653;27;20314;-80
2022/04/13 00:21:48;;;;;;;10.00;9.70;;;8.70;99.90;;;;;;5147439;27;20285;-80
2022/04/13 00:24:16;;;;;;;10.20;9.90;;;8.60;99.90;;;;;;5149883;27;20216;-81
2022/04/13 00:26:45;;;;;;;10.00;9.70;;;8.60;99.90;;;;;;5144523;27;20232;-80
2022/04/13 00:29:15;;;;;;;10.10;9.80;;;8.60;99.90;;;;;;5145335;27;20232;-80
2022/04/13 00:31:54;;;;;;;10.20;9.90;;;8.50;99.90;;;;;;5144547;27;20235;-80
2022/04/13 00:34:23;;;;;;;10.00;9.70;;;8.50;99.90;;;;;;5144816;27;20243;-80
2022/04/13 00:36:56;;;;;;;10.00;9.70;;;8.30;99.90;;;;;;5144196;27;20236;-81
2022/04/13 00:39:24;;;;;;;10.20;9.90;;;8.20;99.90;;;;;;5143655;27;20228;-80
2022/04/13 00:42:00;;;;;;;10.30;10.00;;;8.10;99.90;;;;;;5143481;27;20285;-80
2022/04/13 00:44:30;;;;;;;10.13;9.83;;;8.00;99.90;;;;;;5143601;27;20234;-80
2022/04/13 00:47:08;;;;;;;10.20;9.90;;;8.10;99.90;;;;;;5143327;27;20234;-80
2022/04/13 00:49:37;;;;;;;10.10;9.80;;;8.10;99.90;;;;;;5143459;27;20228;-80
2022/04/13 00:52:06;;;;;;;9.70;9.40;;;8.10;99.90;;;;;;5143425;27;20232;-81
2022/04/13 00:54:36;;;;;;;9.83;9.53;;;8.20;99.90;;;;;;5143584;27;20220;-81
2022/04/13 00:57:15;;;;;;;9.97;9.67;;;8.20;99.90;;;;;;5142255;27;20281;-81
2022/04/13 00:59:47;;;;;;;9.90;9.60;;;8.20;99.90;;;;;;5143552;27;20231;-81
2022/04/13 01:02:22;;;;;;;10.10;9.80;;;8.20;99.90;;;;;;5143266;27;20228;-81
2022/04/13 01:04:52;;;;;;;10.20;9.90;;;8.20;99.90;;;;;;5143543;27;20246;-81
2022/04/13 01:07:21;;;;;;;9.80;9.50;;;8.20;99.90;;;;;;5143735;27;20228;-80
2022/04/13 01:09:51;;;;;;;9.97;9.67;;;8.30;99.90;;;;;;5143232;27;20269;-80
2022/04/13 01:12:19;;;;;;;9.97;9.67;;;8.30;99.90;;;;;;5143217;27;20228;-80
2022/04/13 01:14:49;;;;;;;9.93;9.63;;;8.30;99.90;;;;;;5144115;27;20213;-80
2022/04/13 01:17:28;;;;;;;9.97;9.67;;;8.30;99.90;;;;;;5157410;27;20277;-79
2022/04/13 01:19:58;;;;;;;10.20;9.90;;;8.30;99.90;;;;;;5158831;27;20238;-81
2022/04/13 01:22:30;;;;;;;10.07;9.77;;;8.30;99.90;;;;;;5149320;27;20249;-81
2022/04/13 01:24:57;;;;;;;9.80;9.50;;;8.30;99.90;;;;;;5148740;27;20220;-81
2022/04/13 01:27:26;;;;;;;10.10;9.80;;;8.20;99.90;;;;;;5147604;27;20231;-81
2022/04/13 01:29:55;;;;;;;9.80;9.50;;;8.20;99.90;;;;;;5147323;27;20269;-81
2022/04/13 01:32:25;;;;;;;10.00;9.70;;;8.20;99.90;;;;;;5146529;27;20285;-80
2022/04/13 01:34:53;;;;;;;9.80;9.50;;;8.20;99.90;;;;;;5146734;27;20231;-81
2022/04/13 01:37:23;;;;;;;10.03;9.73;;;8.30;99.90;;;;;;5146360;27;20232;-81
2022/04/13 01:40:03;;;;;;;9.90;9.60;;;8.30;99.90;;;;;;5146925;27;20317;-81
2022/04/13 01:42:30;;;;;;;9.80;9.50;;;8.30;99.90;;;;;;5146259;27;20212;-80
2022/04/13 01:45:00;;;;;;;9.77;9.47;;;8.30;99.90;;;;;;5145946;27;20264;-80
2022/04/13 01:47:29;;;;;;;9.90;9.60;;;8.30;99.90;;;;;;5145734;27;20253;-80
2022/04/13 01:49:59;;;;;;;10.00;9.70;;;8.30;99.90;;;;;;5145915;27;20232;-80
2022/04/13 01:52:28;;;;;;;9.93;9.63;;;8.30;99.90;;;;;;5146916;27;20216;-80
2022/04/13 01:55:18;;;;;;;9.90;9.60;;;8.30;99.90;;;;;;5147127;27;20228;-80
2022/04/13 01:57:46;;;;;;;9.90;9.60;;;8.30;99.90;;;;;;5146591;27;20237;-80
2022/04/13 02:00:16;;;;;;;10.00;9.70;;;8.30;99.90;;;;;;5146246;27;20232;-80
2022/04/13 02:02:46;;;;;;;10.10;9.80;;;8.20;99.90;;;;;;5146231;27;20259;-80
2022/04/13 02:05:15;;;;;;;9.80;9.50;;;8.20;99.90;;;;;;5146053;27;20227;-80
2022/04/13 02:07:45;;;;;;;9.43;9.13;;;8.20;99.90;;;;;;5146035;27;20685;-80
2022/04/13 02:10:16;;;;;;;9.70;9.40;;;8.20;99.90;;;;;;5146415;27;20224;-80
2022/04/13 02:12:44;;;;;;;9.60;9.30;;;8.20;99.90;;;;;;5146284;27;20733;-80
2022/04/13 02:15:12;;;;;;;9.70;9.40;;;8.20;99.90;;;;;;5145617;27;20230;-80
2022/04/13 02:17:42;;;;;;;9.70;9.40;;;8.20;99.90;;;;;;5145944;27;20236;-80
2022/04/13 02:20:11;;;;;;;9.60;9.30;;;8.20;99.90;;;;;;5147347;27;20224;-80
2022/04/13 02:22:41;;;;;;;9.60;9.30;;;8.10;99.90;;;;;;5147943;27;20239;-80
2022/04/13 02:25:10;;;;;;;9.70;9.40;;;8.10;99.90;;;;;;5147483;27;20284;-80
2022/04/13 02:27:51;;;;;;;10.00;9.70;;;8.00;99.90;;;;;;5152667;27;20252;-79
2022/04/13 02:30:18;;;;;;;9.87;9.57;;;7.90;99.90;;;;;;5159285;27;20224;-78
2022/04/13 02:32:47;;;;;;;9.83;9.53;;;7.80;99.90;;;;;;5159115;27;20223;-80
2022/04/13 02:35:17;;;;;;;9.87;9.57;;;7.70;99.90;;;;;;5147033;27;20259;-80
2022/04/13 02:37:46;;;;;;;10.10;9.80;;;7.70;99.90;;;;;;5144215;27;20264;-81
2022/04/13 02:40:16;;;;;;;10.00;9.70;;;7.70;99.90;;;;;;5144813;27;20236;-80
2022/04/13 02:42:55;;;;;;;9.90;9.60;;;7.60;99.90;;;;;;5144377;27;20227;-80
2022/04/13 02:45:24;;;;;;;10.10;9.80;;;7.60;99.90;;;;;;5144449;27;20230;-80
2022/04/13 02:47:53;;;;;;;10.00;9.70;;;7.60;99.90;;;;;;5144936;27;20321;-80
2022/04/13 02:50:23;;;;;;;9.90;9.60;;;7.60;99.90;;;;;;5157934;27;20204;-79
2022/04/13 02:52:54;;;;;;;9.70;9.40;;;7.60;99.90;;;;;;5160052;27;20355;-80
2022/04/13 02:55:22;;;;;;;9.80;9.50;;;7.50;99.90;;;;;;5148505;27;20221;-80
2022/04/13 02:57:54;;;;;;;9.80;9.50;;;7.50;99.90;;;;;;5146518;27;20247;-80
2022/04/13 03:00:22;;;;;;;9.60;9.30;;;7.50;99.90;;;;;;5146098;27;20289;-80
2022/04/13 03:02:49;;;;;;;9.70;9.40;;;7.50;99.90;;;;;;5145739;27;20224;-80
2022/04/13 03:05:19;;;;;;;9.60;9.30;;;7.60;99.90;;;;;;5145378;27;20224;-80
2022/04/13 03:07:48;;;;;;;9.97;9.67;;;7.60;99.90;;;;;;5144446;27;20242;-80
2022/04/13 03:10:18;;;;;;;9.57;9.27;;;7.60;99.90;;;;;;5144775;27;20231;-80
2022/04/13 03:12:47;;;;;;;9.80;9.50;;;7.60;99.90;;;;;;5144370;27;20228;-80
2022/04/13 03:15:27;;;;;;;10.03;9.73;;;7.60;99.90;;;;;;5144116;27;20234;-79
2022/04/13 03:17:55;;;;;;;10.10;9.80;;;7.60;99.90;;;;;;5144477;27;20232;-79
2022/04/13 03:20:24;;;;;;;9.87;9.57;;;7.60;99.90;;;;;;5143860;27;20228;-80
2022/04/13 03:22:54;;;;;;;9.70;9.40;;;7.50;99.90;;;;;;5143200;27;20224;-80
2022/04/13 03:25:23;;;;;;;9.67;9.37;;;7.50;99.90;;;;;;5143953;27;20242;-79
2022/04/13 03:27:52;;;;;;;9.40;9.10;;;7.50;99.90;;;;;;5144334;27;20293;-80
2022/04/13 03:30:31;;;;;;;9.53;9.23;;;7.50;99.90;;;;;;5144338;27;20236;-80
2022/04/13 03:33:01;;;;;;;9.70;9.40;;;7.40;99.90;;;;;;5149621;27;20253;-80
2022/04/13 03:35:30;;;;;;;9.73;9.43;;;7.40;99.90;;;;;;5162286;27;20220;-79
2022/04/13 03:37:59;;;;;;;9.70;9.40;;;7.40;99.90;;;;;;5147476;27;20236;-80
2022/04/13 03:40:28;;;;;;;9.77;9.47;;;7.40;99.90;;;;;;5146347;27;20263;-80
2022/04/13 03:42:58;;;;;;;9.60;9.30;;;7.30;99.90;;;;;;5144894;27;20242;-80
2022/04/13 03:45:37;;;;;;;9.70;9.40;;;7.30;99.90;;;;;;5144422;27;20224;-80
2022/04/13 03:48:05;;;;;;;9.73;9.43;;;7.30;99.90;;;;;;5144604;27;20250;-80
2022/04/13 03:50:35;;;;;;;9.37;9.07;;;7.30;99.90;;;;;;5144033;27;20297;-80
2022/04/13 03:53:05;;;;;;;9.60;9.30;;;7.20;99.90;;;;;;5144332;27;20242;-80
2022/04/13 03:55:35;;;;;;;9.40;9.10;;;7.20;99.90;;;;;;5143941;27;20703;-80
2022/04/13 03:58:05;;;;;;;9.70;9.40;;;7.20;99.90;;;;;;5144275;27;20224;-80
2022/04/13 04:00:46;;;;;;;9.70;9.40;;;7.10;99.90;;;;;;5144310;27;20404;-80
2022/04/13 04:03:14;;;;;;;9.87;9.57;;;7.10;99.90;;;;;;5144660;27;20231;-80
2022/04/13 04:05:43;;;;;;;10.03;9.73;;;7.10;99.90;;;;;;5144124;27;20253;-80
2022/04/13 04:08:12;;;;;;;10.00;9.70;;;7.10;99.90;;;;;;5144671;27;20232;-80
2022/04/13 04:10:41;;;;;;;10.53;10.23;;;7.10;99.90;;;;;;5143986;27;20278;-80
2022/04/13 04:13:10;;;;;;;10.57;10.27;;;7.00;99.90;;;;;;5143823;27;20232;-80
2022/04/13 04:15:49;;;;;;;10.53;10.23;;;7.00;99.90;;;;;;5143746;27;20683;-80
2022/04/13 04:18:18;;;;;;;10.63;10.33;;;7.00;99.90;;;;;;5144799;27;20289;-81
2022/04/13 04:20:48;;;;;;;10.60;10.30;;;7.00;99.90;;;;;;5143359;27;20252;-79
2022/04/13 04:23:17;;;;;;;10.60;10.30;;;7.00;99.90;;;;;;5143946;27;20232;-79
2022/04/13 04:25:46;;;;;;;11.00;10.70;;;6.90;99.90;;;;;;5142815;27;20224;-81
2022/04/13 04:28:16;;;;;;;10.90;10.60;;;6.90;99.90;;;;;;5143170;27;20231;-80
2022/04/13 04:30:54;;;;;;;11.20;10.90;;;6.90;99.90;;;;;;5142976;27;20258;-79
2022/04/13 04:33:24;;;;;;;11.03;10.73;;;6.90;99.90;;;;;;5142944;27;20270;-80
2022/04/13 04:35:54;;;;;;;10.80;10.50;;;6.80;99.90;;;;;;5143340;27;20302;-79
2022/04/13 04:38:23;;;;;;;10.80;10.50;;;6.80;99.90;;;;;;5143416;27;20281;-80
2022/04/13 04:40:53;;;;;;;10.80;10.50;;;6.70;99.90;;;;;;5142945;27;20359;-80
2022/04/13 04:43:22;;;;;;;10.60;10.30;;;6.60;99.90;;;;;;5143003;27;20255;-80
2022/04/13 04:46:01;;;;;;;10.73;10.43;;;6.50;99.90;;;;;;5142679;27;20228;-80
2022/04/13 04:48:29;;;;;;;10.57;10.27;;;6.50;99.90;;;;;;5143762;27;20270;-80
2022/04/13 04:51:00;;;;;;;10.47;10.17;;;6.50;99.90;;;;;;5142757;27;20228;-80
2022/04/13 04:53:29;;;;;;;11.10;10.80;;;6.40;99.90;;;;;;5143708;27;20216;-80
2022/04/13 04:55:57;;;;;;;10.80;10.50;;;6.40;99.90;;;;;;5143383;27;20743;-80
2022/04/13 04:58:27;;;;;;;11.00;10.70;;;6.40;99.90;;;;;;5109792;22;20288;-85
2022/04/13 05:00:59;;;;;;;10.70;10.40;;;6.50;99.90;;;;;;5094693;28;20225;-85
2022/04/13 05:03:27;;;;;;;10.80;10.50;;;6.40;99.90;;;;;;5103744;28;20209;-86
2022/04/13 05:05:55;;;;;;;10.80;10.50;;;6.40;99.90;;;;;;5107487;28;20229;-84
2022/04/13 05:08:25;;;;;;;10.60;10.30;;;6.40;99.90;;;;;;5107023;28;20234;-85
2022/04/13 05:10:54;;;;;;;10.70;10.40;;;6.40;99.90;;;;;;5105326;28;20324;-86
2022/04/13 05:13:24;;;;;;;10.57;10.27;;;6.50;99.90;;;;;;5101052;28;20276;-85
2022/04/13 05:15:53;;;;;;;10.70;10.40;;;6.50;99.90;;;;;;5081528;28;20229;-85
2022/04/13 05:18:25;;;;;;;10.83;10.53;;;6.50;99.90;;;;;;5092318;28;20241;-87
2022/04/13 05:20:53;;;;;;;10.95;10.65;;;6.60;99.90;;;;;;5085873;28;20459;-85
2022/04/13 05:23:21;;;;;;;10.80;10.50;;;6.70;99.90;;;;;;5082336;28;20240;-87
2022/04/13 05:25:51;;;;;;;10.30;10.00;;;6.80;99.90;;;;;;5081412;28;20320;-85
2022/04/13 05:28:20;;;;;;;10.27;9.97;;;6.90;99.90;;;;;;5080452;28;20297;-87
2022/04/13 05:30:50;;;;;;;10.20;9.90;;;7.00;99.90;;;;;;5080536;28;20230;-88
2022/04/13 05:33:19;;;;;;;10.47;10.17;;;7.10;99.90;;;;;;5080618;28;20230;-87
2022/04/13 05:35:52;;;;;;;10.47;10.17;;;7.20;99.90;;;;;;5079926;28;20206;-86
2022/04/13 05:38:20;;;;;;;10.60;10.30;;;7.20;99.90;;;;;;5080155;28;20747;-87
2022/04/13 05:40:48;;;;;;;10.67;10.37;;;7.30;99.90;;;;;;5081134;28;20233;-87
2022/04/13 05:43:18;;;;;;;10.00;9.70;;;7.40;99.90;;;;;;5080112;28;20292;-87
2022/04/13 05:45:46;;;;;;;9.90;9.60;;;7.40;99.90;;;;;;5079972;28;20273;-87
2022/04/13 05:48:15;;;;;;;9.83;9.53;;;7.50;99.90;;;;;;5079417;28;20238;-86
2022/04/13 05:50:45;;;;;;;9.80;9.50;;;7.60;99.90;;;;;;5081868;28;20266;-87
2022/04/13 05:53:18;;;;;;;9.90;9.60;;;7.60;99.90;;;;;;5086254;28;20225;-86
2022/04/13 05:55:46;;;;;;;9.73;9.43;;;7.60;99.90;;;;;;5092852;28;20222;-86
2022/04/13 05:58:26;;;;;;;9.90;9.60;;;7.60;99.90;;;;;;5098897;28;20233;-86
2022/04/13 06:00:54;;;;;;;10.00;9.70;;;7.50;99.90;;;;;;5100530;28;20233;-86
2022/04/13 06:03:25;;;;;;;10.00;9.70;;;7.50;99.90;;;;;;5103425;28;20233;-86
2022/04/13 06:05:53;;;;;;;10.00;9.70;;;7.60;99.90;;;;;;5104689;28;20221;-85
2022/04/13 06:08:25;;;;;;;10.00;9.70;;;7.60;99.90;;;;;;5106190;28;20229;-85
2022/04/13 06:10:53;;;;;;;10.23;9.93;;;7.70;99.90;;;;;;5103620;28;20287;-85
2022/04/13 06:13:23;;;;;;;10.10;9.80;;;7.80;99.90;;;;;;5103821;28;20237;-86
2022/04/13 06:15:52;;;;;;;10.37;10.07;;;7.80;99.90;;;;;;5104215;28;20232;-87
2022/04/13 06:18:20;;;;;;;10.20;9.90;;;8.00;99.90;;;;;;5104045;28;20225;-86
2022/04/13 06:20:48;;;;;;;10.57;10.27;;;8.20;99.90;;;;;;5103040;28;20237;-83
2022/04/13 06:23:18;;;;;;;10.00;9.70;;;8.30;99.90;;;;;;5103494;28;20260;-86
2022/04/13 06:25:47;;;;;;;10.30;10.00;;;8.40;99.90;;;;;;5117856;28;20269;-83
2022/04/13 06:28:15;;;;;;;10.30;10.00;;;8.50;99.90;;;;;;5121603;28;20255;-81
2022/04/13 06:30:43;;;;;;;10.47;10.17;;;8.60;99.90;;;;;;5119071;28;20226;-85
2022/04/13 06:33:11;;;;;;;10.50;10.20;;;8.80;99.90;;;;;;5117600;28;20297;-85
2022/04/13 06:35:39;;;;;;;10.40;10.10;;;8.80;99.90;;;;;;5114360;28;20225;-85
2022/04/13 06:38:07;;;;;;;10.40;10.10;;;9.00;99.90;;;;;;5103496;28;20245;-85
2022/04/13 06:40:34;;;;;;;10.60;10.30;;;9.10;99.90;;;;;;5103590;28;20336;-85
2022/04/13 06:43:03;;;;;;;10.30;10.00;;;9.20;99.90;;;;;;5103084;28;20225;-84
2022/04/13 06:45:31;;;;;;;10.30;10.00;;;9.40;99.90;;;;;;5091738;28;20644;-87
2022/04/13 06:47:59;;;;;;;10.33;10.03;;;9.50;99.90;;;;;;5093447;28;20238;-85
2022/04/13 06:50:27;;;;;;;10.20;9.90;;;9.70;99.90;;;;;;5082252;28;20253;-84
2022/04/13 06:52:55;;;;;;;10.50;10.20;;;9.90;99.90;;;;;;5099678;28;20299;-83
2022/04/13 06:55:23;;;;;;;10.47;10.17;;;10.00;99.90;;;;;;5098373;28;20226;-85
2022/04/13 06:57:51;;;;;;;10.13;9.83;;;10.20;99.90;;;;;;5094083;28;20237;-84
2022/04/13 07:00:21;;;;;;;10.40;10.10;;;10.30;99.90;;;;;;5085421;28;20230;-84
2022/04/13 07:02:57;;;;;;;10.40;10.10;;;10.40;99.90;;;;;;5085716;28;20218;-84
2022/04/13 07:05:25;;;;;;;10.60;10.30;;;10.50;99.90;;;;;;5074714;28;20226;-84
2022/04/13 07:07:53;;;;;;;10.60;10.30;;;10.60;99.90;;;;;;5093163;28;20292;-84
2022/04/13 07:10:21;;;;;;;10.60;10.30;;;10.70;99.90;;;;;;5084357;28;20273;-86
2022/04/13 07:12:49;;;;;;;10.47;10.17;;;10.90;99.90;;;;;;5083517;28;20238;-84
2022/04/13 07:15:22;;;;;;;10.30;10.00;;;11.00;99.90;;;;;;5087814;28;20244;-86
2022/04/13 07:17:56;;;;;;;10.63;10.33;;;11.20;99.90;;;;;;5093614;28;20221;-87
2022/04/13 07:20:26;;;;;;;9.93;9.63;;;11.30;99.90;;;;;;5101764;28;20229;-87
2022/04/13 07:22:57;;;;;;;10.43;10.13;;;11.50;99.90;;;;;;5098676;28;20733;-87
2022/04/13 07:25:26;;;;;;;10.20;9.90;;;11.60;99.90;;;;;;5086854;28;20230;-87
2022/04/13 07:27:57;;;;;;;10.20;9.90;;;11.80;99.90;;;;;;5085525;28;20244;-87
2022/04/13 07:30:27;;;;;;;10.30;10.00;;;12.00;99.90;;;;;;5092452;28;20226;-87
2022/04/13 07:32:58;;;;;;;10.63;10.33;;;12.10;99.90;;;;;;5090328;28;20240;-84
2022/04/13 07:35:26;;;;;;;10.37;10.07;;;12.30;99.90;;;;;;5103841;28;20230;-85
2022/04/13 07:37:54;;;;;;;10.60;10.30;;;12.40;99.90;;;;;;5106488;28;20291;-87
2022/04/13 07:40:22;;;;;;;10.43;10.13;;;12.60;99.90;;;;;;5093823;28;20234;-85
2022/04/13 07:42:50;;;;;;;10.53;10.23;;;12.80;99.90;;;;;;5092675;28;20217;-81
2022/04/13 07:45:18;;;;;;;10.60;10.30;;;13.00;99.90;;;;;;5102291;28;20279;-83
2022/04/13 07:47:47;;;;;;;10.10;9.80;;;13.20;99.90;;;;;;5102431;28;20283;-83
2022/04/13 07:50:16;;;;;;;10.20;9.90;;;13.30;99.90;;;;;;5104187;28;20256;-85
2022/04/13 07:52:44;;;;;;;10.30;10.00;;;13.40;99.90;;;;;;5113800;28;20222;-86
2022/04/13 07:55:14;;;;;;;10.20;9.90;;;13.50;99.90;;;;;;5109149;28;20248;-86
2022/04/13 07:57:57;;;;;;;10.33;10.03;;;13.60;99.90;;;;;;5106177;28;20257;-86
2022/04/13 08:00:29;;;;;;;10.37;10.07;;;13.70;99.90;;;;;;5105438;28;20234;-86
2022/04/13 08:02:58;;;;;;;10.20;9.90;;;13.80;99.90;;;;;;5103805;28;20229;-86
2022/04/13 08:05:26;;;;;;;10.40;10.10;;;13.80;99.90;;;;;;5102810;28;20229;-80
2022/04/13 08:07:54;;;;;;;10.87;10.57;;;13.90;99.90;;;;;;5100654;28;20291;-81
2022/04/13 08:10:21;;;;;;;10.77;10.47;;;14.00;99.90;;;;;;5086498;28;20230;-80
2022/04/13 08:12:52;;;;;;;10.80;10.50;;;14.10;99.90;;;;;;5091158;28;20234;-87
2022/04/13 08:15:20;;;;;;;10.17;9.87;;;14.30;99.90;;;;;;5089612;28;20218;-81
2022/04/13 08:17:48;;;;;;;10.40;10.10;;;14.50;99.90;;;;;;5084390;28;20240;-80
2022/04/13 08:20:17;;;;;;;10.43;10.13;;;14.60;99.90;;;;;;5094014;28;20287;-80
2022/04/13 08:22:47;;;;;;;10.10;9.80;;;14.70;99.90;;;;;;5102019;28;20298;-81
2022/04/13 08:25:15;;;;;;;10.20;9.90;;;14.70;99.90;;;;;;5104059;28;20225;-82
2022/04/13 08:27:43;;;;;;;10.20;9.90;;;14.90;99.90;;;;;;5097786;28;20230;-83
2022/04/13 08:30:12;;;;;;;10.17;9.87;;;14.90;99.90;;;;;;5096175;28;20758;-82
2022/04/13 08:32:40;;;;;;;10.30;10.00;;;15.10;99.90;;;;;;5102312;28;20291;-80
2022/04/13 08:35:10;;;;;;;10.40;10.10;;;15.30;99.90;;;;;;5096872;28;20215;-82
2022/04/13 08:37:40;;;;;;;10.20;9.90;;;15.40;99.90;;;;;;5091619;28;20233;-82
2022/04/13 08:40:11;;;;;;;10.80;10.50;;;15.60;99.90;;;;;;5081039;28;20237;-81
2022/04/13 08:42:47;;;;;;;10.10;9.80;;;15.70;99.90;;;;;;5080535;28;20222;-81
2022/04/13 08:45:25;;;;;;;10.45;10.15;;;15.70;99.90;;;;;;5078635;28;20278;-81
2022/04/13 08:47:56;;;;;;;10.30;10.00;;;15.90;99.90;;;;;;5078108;28;20241;-81
2022/04/13 08:50:30;;;;;;;10.10;9.80;;;16.00;99.90;;;;;;5083196;28;20326;-81
2022/04/13 08:53:04;;;;;;;10.30;10.00;;;16.20;99.90;;;;;;5088454;28;20233;-82
2022/04/13 08:55:33;;;;;;;10.60;10.30;;;16.20;99.90;;;;;;5095254;28;20243;-80
2022/04/13 08:58:15;;;;;;;10.20;9.90;;;16.30;99.90;;;;;;5112878;28;20221;-80
2022/04/13 09:00:49;;;;;;;10.02;9.73;;;16.50;99.90;;;;;;5116296;28;20213;-82
2022/04/13 09:03:25;;;;;;;9.90;9.60;;;16.70;99.90;;;;;;5114978;28;20247;-80
2022/04/13 09:05:57;;;;;;;10.40;10.10;;;16.70;99.90;;;;;;5102321;28;20251;-80
2022/04/13 09:08:37;;;;;;;10.27;9.98;;;16.80;99.90;;;;;;5095042;28;20233;-81
2022/04/13 09:11:06;;;;;;;10.20;9.90;;;17.10;99.90;;;;;;5071474;28;20291;-82
2022/04/13 09:13:34;;;;;;;10.27;9.98;;;17.10;99.90;;;;;;5100559;28;20225;-82
2022/04/13 09:16:04;;;;;;;10.02;9.73;;;17.10;99.90;;;;;;5108557;28;20225;-81
2022/04/13 09:18:32;;;;;;;10.07;9.77;;;17.10;99.90;;;;;;5100593;28;20233;-81
2022/04/13 09:21:00;;;;;;;10.20;9.90;;;17.20;99.90;;;;;;5100011;28;20241;-81
2022/04/13 09:23:30;;;;;;;10.13;9.82;;;17.50;99.90;;;;;;5099493;28;20237;-81
2022/04/13 09:25:59;;;;;;;10.20;9.90;;;17.70;99.90;;;;;;5100132;28;20226;-81
2022/04/13 09:28:27;;;;;;;10.30;10.00;;;17.70;99.90;;;;;;5099825;28;20238;-80
2022/04/13 09:30:56;;;;;;;10.60;10.30;;;17.70;99.90;;;;;;5090610;28;20233;-81
2022/04/13 09:33:27;;;;;;;10.43;10.13;;;17.90;99.90;;;;;;5082598;28;20284;-81
2022/04/13 09:35:55;;;;;;;10.90;10.60;;;18.00;99.90;;;;;;5079264;28;20276;-81
2022/04/13 09:38:26;;;;;;;10.63;10.32;;;18.00;99.90;;;;;;5080785;28;20292;-80
2022/04/13 09:41:11;;;;;;;10.68;10.38;;;18.20;99.90;;;;;;5082874;28;20276;-82
2022/04/13 09:43:42;;;;;;;10.60;10.30;;;18.60;99.90;;;;;;5082872;28;20222;-82
2022/04/13 09:46:27;;;;;;;10.50;10.20;;;19.00;99.90;;;;;;5083120;28;20219;-81
2022/04/13 09:49:10;;;;;;;10.43;10.13;;;19.10;99.90;;;;;;5082143;28;20230;-80
2022/04/13 09:51:39;;;;;;;10.30;10.00;;;19.40;99.90;;;;;;5082095;28;20230;-82
2022/04/13 09:54:09;;;;;;;10.65;10.35;;;19.50;99.90;;;;;;5083164;28;20236;-82
2022/04/13 09:56:41;;;;;;;10.57;10.27;;;19.60;99.90;;;;;;5082686;28;20245;-82
2022/04/13 09:59:14;;;;;;;10.70;10.40;;;19.70;99.90;;;;;;5083326;28;20245;-82
2022/04/13 10:01:42;;;;;;;10.70;10.40;;;19.90;99.90;;;;;;5083850;28;20226;-82
2022/04/13 10:04:26;;;;;;;10.73;10.43;;;20.00;99.90;;;;;;5083635;28;20234;-81
2022/04/13 10:07:21;;;;;;;10.70;10.40;;;20.20;99.90;;;;;;5083407;28;20296;-82
2022/04/13 10:09:52;;;;;;;10.20;9.90;;;20.40;99.90;;;;;;5082994;28;20261;-82
2022/04/13 10:12:21;;;;;;;10.45;10.15;;;20.50;99.90;;;;;;5082003;28;20234;-81
2022/04/13 10:14:49;;;;;;;10.70;10.40;;;20.50;99.90;;;;;;5081295;28;20234;-82
2022/04/13 10:17:17;;;;;;;10.23;9.93;;;20.70;99.90;;;;;;5080364;28;20222;-81
2022/04/13 10:19:53;;;;;;;10.60;10.30;;;20.80;99.90;;;;;;5093631;28;20226;-80
2022/04/13 10:22:21;;;;;;;10.52;10.23;;;20.90;99.90;;;;;;5093408;28;20292;-80
2022/04/13 10:24:49;;;;;;;10.50;10.20;;;21.10;99.90;;;;;;5098363;28;20226;-79
2022/04/13 10:27:20;;;;;;;10.23;9.93;;;21.50;99.90;;;;;;5095344;28;20237;-80
2022/04/13 10:29:52;;;;;;;10.27;9.98;;;21.50;99.90;;;;;;5101885;28;21093;-81
2022/04/13 10:32:23;;;;;;;10.60;10.30;;;21.60;99.90;;;;;;5101531;28;20248;-79
2022/04/13 10:34:53;;;;;;;10.20;9.90;;;21.90;99.90;;;;;;5101001;28;21087;-80
2022/04/13 10:37:26;;;;;;;10.20;9.90;;;22.10;99.90;;;;;;5100031;28;20229;-80
2022/04/13 10:39:56;;;;;;;10.25;9.95;;;22.40;99.90;;;;;;5082796;28;20328;-78
2022/04/13 10:42:29;;;;;;;9.98;9.68;;;22.40;99.90;;;;;;5099467;28;20224;-79
2022/04/13 10:45:04;;;;;;;10.02;9.73;;;22.10;99.90;;;;;;5101997;28;20240;-82
2022/04/13 10:47:42;;;;;;;10.18;9.88;;;22.20;99.90;;;;;;5108326;28;20255;-80
2022/04/13 10:50:12;;;;;;;10.23;9.93;;;22.20;99.90;;;;;;5109580;28;20287;-79
2022/04/13 10:52:46;;;;;;;10.25;9.95;;;22.30;99.90;;;;;;5105236;28;20229;-81
2022/04/13 10:55:15;;;;;;;10.25;9.95;;;22.70;99.90;;;;;;5085209;28;20256;-80
2022/04/13 10:57:50;;;;;;;10.57;10.27;;;23.10;99.90;;;;;;5096215;22;20223;-81
2022/04/13 11:00:26;;;;;;;10.23;9.93;;;23.40;99.90;;;;;;5056161;28;20246;-81
2022/04/13 11:03:34;;;;;;;10.40;10.10;;;23.70;99.90;;;;;;5047117;28;20234;-83
2022/04/13 11:06:26;;;;;;;10.30;10.00;;;24.00;99.90;;;;;;5054991;28;20215;-80
2022/04/13 11:09:31;;;;;;;10.30;10.00;;;24.00;99.90;;;;;;5075628;28;20215;-81
2022/04/13 11:15:22;;;;;;;10.68;10.38;;;24.40;99.90;;;;;;5045357;28;20233;-81
2022/04/13 11:17:52;;;;;;;10.45;10.15;;;24.40;99.90;;;;;;5060143;28;20295;-79
2022/04/13 11:20:22;;;;;;;10.40;10.10;;;24.40;99.90;;;;;;5059942;28;20239;-78
2022/04/13 11:23:17;;;;;;;10.40;10.10;;;24.70;99.90;;;;;;5059025;28;20239;-77
2022/04/13 11:26:01;;;;;;;10.20;9.90;;;24.90;99.90;;;;;;5062891;28;20231;-80
2022/04/13 11:28:34;;;;;;;10.15;9.85;;;24.30;99.90;;;;;;5062105;28;20242;-80
2022/04/13 11:31:11;;;;;;;10.48;10.18;;;24.40;99.90;;;;;;5062321;28;20231;-80
2022/04/13 11:33:51;;;;;;;10.45;10.15;;;24.50;99.90;;;;;;5062045;28;21061;-80
2022/04/13 11:36:21;;;;;;;10.27;9.98;;;24.60;99.90;;;;;;5062450;28;20311;-80
2022/04/13 11:38:50;;;;;;;10.20;9.90;;;24.50;99.90;;;;;;5062561;28;20239;-81
2022/04/13 11:41:18;;;;;;;10.40;10.10;;;24.60;99.90;;;;;;5062161;28;20219;-80
2022/04/13 11:43:47;;;;;;;10.45;10.15;;;24.70;99.90;;;;;;5061681;28;20253;-81
2022/04/13 11:46:45;;;;;;;10.45;10.15;;;24.70;99.90;;;;;;5061967;28;20239;-81
2022/04/13 11:49:13;;;;;;;10.50;10.20;;;25.20;99.90;;;;;;5061989;28;20230;-79
2022/04/13 11:51:42;;;;;;;10.60;10.30;;;25.30;99.90;;;;;;5058238;28;20227;-81
2022/04/13 11:54:13;;;;;;;10.80;10.50;;;25.60;99.90;;;;;;5061368;28;20234;-82
2022/04/13 11:56:51;;;;;;;10.68;10.38;;;25.30;99.90;;;;;;5061390;28;20258;-81
2022/04/13 11:59:47;;;;;;;10.50;10.20;;;25.90;99.90;;;;;;5060583;28;20297;-81
2022/04/13 12:02:26;;;;;;;10.80;10.50;;;26.20;99.90;;;;;;5062192;28;20250;-80
2022/04/13 12:05:07;;;;;;;10.88;10.57;;;26.70;99.90;;;;;;5060669;28;20261;-79
2022/04/13 12:07:45;;;;;;;10.60;10.30;;;27.10;99.90;;;;;;5079162;28;20245;-80
2022/04/13 12:10:13;;;;;;;10.73;10.43;;;27.20;99.90;;;;;;5082478;28;20218;-82
2022/04/13 12:12:52;;;;;;;10.75;10.45;;;27.00;99.90;;;;;;5082802;28;20253;-81
2022/04/13 12:15:19;;;;;;;10.82;10.52;;;26.80;99.90;;;;;;5082676;28;20225;-82
2022/04/13 12:17:58;;;;;;;10.57;10.27;;;26.60;99.90;;;;;;5083780;28;20277;-82
2022/04/13 12:20:31;;;;;;;10.75;10.45;;;26.60;99.90;;;;;;5082665;28;20320;-82
2022/04/13 12:22:58;;;;;;;10.73;10.43;;;26.70;99.90;;;;;;5082359;28;20230;-82
2022/04/13 12:25:26;;;;;;;10.90;10.60;;;26.40;99.90;;;;;;5082962;28;20238;-81
2022/04/13 12:28:04;;;;;;;10.80;10.50;;;26.10;99.90;;;;;;5080847;28;20238;-85
2022/04/13 12:30:34;;;;;;;10.98;10.68;;;26.00;99.90;;;;;;5081035;28;20261;-86
2022/04/13 12:33:13;;;;;;;10.75;10.45;;;25.80;99.90;;;;;;5080259;28;20256;-88
2022/04/13 12:35:49;;;;;;;10.75;10.45;;;25.70;99.90;;;;;;5058201;28;20337;-87
2022/04/13 12:38:29;;;;;;;11.02;10.73;;;26.20;99.90;;;;;;5060366;28;20257;-86
2022/04/13 12:41:09;;;;;;;11.10;10.80;;;26.80;99.90;;;;;;5060381;28;20293;-89
2022/04/13 12:43:39;;;;;;;10.90;10.60;;;27.00;99.90;;;;;;5061095;28;20210;-88
2022/04/13 12:46:23;;;;;;;11.32;11.02;;;27.40;99.90;;;;;;5060919;28;20302;-87
2022/04/13 12:49:01;;;;;;;11.00;10.70;;;27.60;98.90;;;;;;5062025;28;20242;-86
2022/04/13 13:05:37;;;;;;;11.70;11.30;;;26.30;99.90;;;;;;4941462;28;20233;-82
2022/04/13 13:15:08;;;;;;;11.70;11.30;;;26.50;99.90;;;;;;4974234;28;20261;-84
2022/04/13 13:17:54;;;;;;;11.48;11.18;;;27.10;99.90;;;;;;4983690;28;20229;-83
2022/04/13 13:20:24;;;;;;;11.02;10.73;;;27.60;99.90;;;;;;5031204;28;20219;-85
2022/04/13 13:23:02;;;;;;;11.30;11.00;;;27.80;99.90;;;;;;5064728;28;20241;-84
2022/04/13 13:54:08;;;;;;;11.20;10.90;;;26.70;99.90;;;;;;5054495;28;20220;-83
2022/04/13 13:56:36;;;;;;;11.13;10.82;;;26.50;99.80;;;;;;5062146;28;20227;-82